createdAt,value
2018-06-12T00:01:50.302Z,21.12
2018-06-12T00:04:21.341Z,21.18
2018-06-12T00:06:52.594Z,21.04
2018-06-12T00:09:23.635Z,20.95
2018-06-12T00:11:54.787Z,20.89
2018-06-12T00:14:25.861Z,20.73
2018-06-12T00:16:56.733Z,20.63
2018-06-12T00:19:29.637Z,20.56
2018-06-12T00:22:01.036Z,20.46
2018-06-12T00:24:31.812Z,20.44
2018-06-12T00:27:02.794Z,20.44
2018-06-12T00:29:34.857Z,20.39
2018-06-12T00:32:05.970Z,20.33
2018-06-12T00:34:36.798Z,20.29
2018-06-12T00:37:08.239Z,20.27
2018-06-12T00:39:40.507Z,20.32
2018-06-12T00:42:11.517Z,20.34
2018-06-12T00:44:42.728Z,20.37
2018-06-12T00:47:13.873Z,20.40
2018-06-12T00:49:44.917Z,20.22
2018-06-12T00:52:16.008Z,20.22
2018-06-12T00:54:47.106Z,20.07
2018-06-12T00:57:17.598Z,20.05
2018-06-12T00:59:48.439Z,19.94
2018-06-12T01:02:20.457Z,19.88
2018-06-12T01:04:51.657Z,19.86
2018-06-12T01:07:22.609Z,19.81
2018-06-12T01:09:53.590Z,19.78
2018-06-12T01:12:26.116Z,19.79
2018-06-12T01:14:57.069Z,19.81
2018-06-12T01:17:28.846Z,19.84
2018-06-12T01:20:00.774Z,19.85
2018-06-12T01:22:32.008Z,19.84
2018-06-12T01:25:03.106Z,19.85
2018-06-12T01:27:34.141Z,19.79
2018-06-12T01:30:05.326Z,19.70
2018-06-12T01:32:36.559Z,19.65
2018-06-12T01:35:07.727Z,19.68
2018-06-12T01:37:39.491Z,19.68
2018-06-12T01:40:10.594Z,19.68
2018-06-12T01:42:42.096Z,19.76
2018-06-12T01:45:14.161Z,19.68
2018-06-12T01:47:45.221Z,19.72
2018-06-12T01:50:16.260Z,19.58
2018-06-12T01:52:48.502Z,19.53
2018-06-12T01:55:19.892Z,19.44
2018-06-12T01:57:50.933Z,19.35
2018-06-12T02:00:21.905Z,19.29
2018-06-12T02:02:52.960Z,19.27
2018-06-12T02:05:24.569Z,19.30
2018-06-12T02:07:55.543Z,19.30
2018-06-12T02:10:27.601Z,19.31
2018-06-12T02:12:59.438Z,19.34
2018-06-12T02:15:30.810Z,19.33
2018-06-12T02:18:02.002Z,19.36
2018-06-12T02:20:33.309Z,19.37
2018-06-12T02:23:04.213Z,19.36
2018-06-12T02:25:35.277Z,19.40
2018-06-12T02:28:07.155Z,19.39
2018-06-12T02:30:38.696Z,19.37
2018-06-12T02:33:09.702Z,19.34
2018-06-12T02:35:40.888Z,19.24
2018-06-12T02:38:12.057Z,19.14
2018-06-12T02:40:43.352Z,19.07
2018-06-12T02:43:14.355Z,19.06
2018-06-12T02:45:46.444Z,19.04
2018-06-12T02:48:18.536Z,19.00
2018-06-12T02:50:50.950Z,18.99
2018-06-12T02:53:22.326Z,18.96
2018-06-12T02:55:54.053Z,18.94
2018-06-12T02:58:25.133Z,18.77
2018-06-12T03:00:56.265Z,18.70
2018-06-12T03:03:28.165Z,18.50
2018-06-12T03:05:59.849Z,18.30
2018-06-12T03:08:31.752Z,18.16
2018-06-12T03:11:02.870Z,18.08
2018-06-12T03:13:33.928Z,18.00
2018-06-12T03:16:06.071Z,17.98
2018-06-12T03:18:37.097Z,18.06
2018-06-12T03:21:08.320Z,18.14
2018-06-12T03:23:39.653Z,18.16
2018-06-12T03:26:11.974Z,18.06
2018-06-12T03:28:43.224Z,17.99
2018-06-12T03:31:14.183Z,17.91
2018-06-12T03:33:45.433Z,17.86
2018-06-12T03:36:16.728Z,17.75
2018-06-12T03:38:48.043Z,17.75
2018-06-12T03:41:19.328Z,17.77
2018-06-12T03:43:51.402Z,17.93
2018-06-12T03:46:22.746Z,17.93
2018-06-12T03:48:53.343Z,18.04
2018-06-12T03:51:24.947Z,18.00
2018-06-12T03:53:56.573Z,18.00
2018-06-12T03:56:29.053Z,17.96
2018-06-12T03:59:01.044Z,17.91
2018-06-12T04:01:32.315Z,17.86
2018-06-12T04:04:03.515Z,17.98
2018-06-12T04:06:38.245Z,17.97
2018-06-12T04:09:10.921Z,17.95
2018-06-12T04:11:42.457Z,17.93
2018-06-12T04:14:14.450Z,17.88
2018-06-12T04:16:45.692Z,17.74
2018-06-12T04:19:16.312Z,17.76
2018-06-12T04:21:47.703Z,17.80
2018-06-12T04:24:19.037Z,17.84
2018-06-12T04:26:50.130Z,17.88
2018-06-12T04:29:22.168Z,17.85
2018-06-12T04:31:53.940Z,17.85
2018-06-12T04:34:25.939Z,17.90
2018-06-12T04:37:00.434Z,17.94
2018-06-12T04:39:31.967Z,17.92
2018-06-12T04:42:03.211Z,17.87
2018-06-12T04:44:34.894Z,17.96
2018-06-12T04:47:06.989Z,18.02
2018-06-12T04:49:38.158Z,18.14
2018-06-12T04:52:09.295Z,18.28
2018-06-12T04:54:40.513Z,18.53
2018-06-12T04:57:11.850Z,18.64
2018-06-12T04:59:43.326Z,18.77
2018-06-12T05:02:15.223Z,18.99
2018-06-12T05:04:45.730Z,18.85
2018-06-12T05:07:17.548Z,18.79
2018-06-12T05:09:49.332Z,18.78
2018-06-12T05:12:20.311Z,18.82
2018-06-12T05:14:51.745Z,18.75
2018-06-12T05:17:22.907Z,18.71
2018-06-12T05:19:53.803Z,18.76
2018-06-12T05:22:25.142Z,18.62
2018-06-12T05:24:56.741Z,18.52
2018-06-12T05:27:28.932Z,18.57
2018-06-12T05:30:00.173Z,18.83
2018-06-12T05:32:31.020Z,19.07
2018-06-12T05:35:02.073Z,19.32
2018-06-12T05:37:33.690Z,19.56
2018-06-12T05:40:05.932Z,19.74
2018-06-12T05:42:38.709Z,19.93
2018-06-12T05:45:10.233Z,20.13
2018-06-12T05:47:41.849Z,20.18
2018-06-12T05:50:13.429Z,20.34
2018-06-12T05:52:45.287Z,20.42
2018-06-12T05:55:17.005Z,20.53
2018-06-12T05:57:48.142Z,20.70
2018-06-12T06:00:19.419Z,20.85
2018-06-12T06:02:51.220Z,20.68
2018-06-12T06:05:23.842Z,21.02
2018-06-12T06:07:56.468Z,21.21
2018-06-12T06:10:29.166Z,21.27
2018-06-12T06:13:00.710Z,21.26
2018-06-12T06:15:32.081Z,21.48
2018-06-12T06:18:03.195Z,21.72
2018-06-12T06:20:36.326Z,22.28
2018-06-12T06:23:08.312Z,23.40
2018-06-12T06:25:39.990Z,24.56
2018-06-12T06:28:12.255Z,25.32
2018-06-12T06:30:43.854Z,24.67
2018-06-12T06:33:15.686Z,25.63
2018-06-12T06:35:47.443Z,23.98
2018-06-12T06:38:19.751Z,25.34
2018-06-12T06:40:52.606Z,24.37
2018-06-12T06:43:24.487Z,24.74
2018-06-12T06:45:55.743Z,25.71
2018-06-12T06:48:28.060Z,25.78
2018-06-12T06:51:00.763Z,24.53
2018-06-12T06:53:33.282Z,25.23
2018-06-12T06:56:04.763Z,24.90
2018-06-12T06:58:36.656Z,25.00
2018-06-12T07:01:08.603Z,24.98
2018-06-12T07:03:39.192Z,26.12
2018-06-12T07:06:10.636Z,24.76
2018-06-12T07:08:41.712Z,26.42
2018-06-12T07:11:13.592Z,27.03
2018-06-12T07:13:45.553Z,27.30
2018-06-12T07:16:16.984Z,27.50
2018-06-12T07:18:48.233Z,27.82
2018-06-12T07:21:24.731Z,28.03
2018-06-12T07:23:55.885Z,28.29
2018-06-12T07:26:28.515Z,27.30
2018-06-12T07:29:00.174Z,27.13
2018-06-12T07:31:31.329Z,27.69
2018-06-12T07:34:03.148Z,26.49
2018-06-12T07:36:34.318Z,27.48
2018-06-12T07:39:08.231Z,28.33
2018-06-12T07:41:40.246Z,28.48
2018-06-12T07:44:12.055Z,28.93
2018-06-12T07:46:43.554Z,28.84
2018-06-12T07:49:14.767Z,28.72
2018-06-12T07:51:46.730Z,29.07
2018-06-12T07:54:18.701Z,28.95
2018-06-12T07:56:50.184Z,29.12
2018-06-12T07:59:23.013Z,29.14
2018-06-12T08:01:55.459Z,29.64
2018-06-12T08:04:27.653Z,29.89
2018-06-12T08:07:00.650Z,29.76
2018-06-12T08:09:32.166Z,30.02
2018-06-12T08:12:05.941Z,29.62
2018-06-12T08:14:38.380Z,29.55
2018-06-12T08:17:10.115Z,30.12
2018-06-12T08:19:42.326Z,30.26
2018-06-12T08:22:14.779Z,30.69
2018-06-12T08:24:46.981Z,30.70
2018-06-12T08:27:18.502Z,30.97
2018-06-12T08:29:50.554Z,30.22
2018-06-12T08:32:21.877Z,31.03
2018-06-12T08:34:52.880Z,30.39
2018-06-12T08:37:24.269Z,30.41
2018-06-12T08:39:56.295Z,31.32
2018-06-12T08:42:27.487Z,30.93
2018-06-12T08:44:59.112Z,30.50
2018-06-12T08:47:29.810Z,29.71
2018-06-12T08:50:00.997Z,28.52
2018-06-12T08:52:34.055Z,30.08
2018-06-12T08:55:05.947Z,29.51
2018-06-12T08:57:38.129Z,30.05
2018-06-12T09:00:10.037Z,29.84
2018-06-12T09:02:41.581Z,31.05
2018-06-12T09:05:12.767Z,29.18
2018-06-12T09:07:44.165Z,28.90
2018-06-12T09:10:14.774Z,29.83
2018-06-12T09:12:46.742Z,28.90
2018-06-12T09:15:18.674Z,28.93
2018-06-12T09:17:51.281Z,30.76
2018-06-12T09:20:22.859Z,29.70
2018-06-12T09:22:53.619Z,29.60
2018-06-12T09:25:24.811Z,29.15
2018-06-12T09:27:57.411Z,29.58
2018-06-12T09:30:29.496Z,28.50
2018-06-12T09:33:01.750Z,28.89
2018-06-12T09:35:32.999Z,28.82
2018-06-12T09:38:03.798Z,26.97
2018-06-12T09:40:35.251Z,27.35
2018-06-12T09:43:06.636Z,28.01
2018-06-12T09:45:38.602Z,27.46
2018-06-12T09:48:10.859Z,26.67
2018-06-12T09:50:41.571Z,28.62
2018-06-12T09:53:14.248Z,27.27
2018-06-12T09:55:46.237Z,27.01
2018-06-12T09:58:17.652Z,27.59
2018-06-12T10:00:53.610Z,26.43
2018-06-12T10:03:25.761Z,25.94
2018-06-12T10:05:57.240Z,25.84
2018-06-12T10:08:29.293Z,26.34
2018-06-12T10:11:04.923Z,27.06
2018-06-12T10:13:37.220Z,26.38
2018-06-12T10:16:09.156Z,26.95
2018-06-12T10:18:40.855Z,27.98
2018-06-12T10:21:12.342Z,30.04
2018-06-12T10:23:43.065Z,29.20
2018-06-12T10:26:14.729Z,29.77
2018-06-12T10:28:51.016Z,27.97
2018-06-12T10:31:24.194Z,27.54
2018-06-12T10:33:58.099Z,27.88
2018-06-12T10:36:32.243Z,28.96
2018-06-12T10:39:03.921Z,29.14
2018-06-12T10:41:39.588Z,28.04
2018-06-12T10:44:12.544Z,27.90
2018-06-12T10:46:45.023Z,28.79
2018-06-12T10:49:17.676Z,28.35
2018-06-12T10:51:52.768Z,28.55
2018-06-12T10:54:25.730Z,29.84
2018-06-12T10:56:57.830Z,30.68
2018-06-12T10:59:30.759Z,31.42
2018-06-12T11:02:03.104Z,29.89
2018-06-12T11:04:34.224Z,29.83
2018-06-12T11:07:05.336Z,28.82
2018-06-12T11:09:36.578Z,27.67
2018-06-12T11:12:07.830Z,28.34
2018-06-12T11:14:40.314Z,27.73
2018-06-12T11:17:12.427Z,27.98
2018-06-12T11:19:43.630Z,28.83
2018-06-12T11:22:15.264Z,29.08
2018-06-12T11:24:46.338Z,28.26
2018-06-12T11:27:17.766Z,27.79
2018-06-12T11:29:49.360Z,27.96
2018-06-12T11:32:21.800Z,28.18
2018-06-12T11:34:54.526Z,28.54
2018-06-12T11:37:25.983Z,28.36
2018-06-12T11:39:57.667Z,27.70
2018-06-12T11:42:29.686Z,28.43
2018-06-12T11:45:01.105Z,28.80
2018-06-12T11:47:33.533Z,29.16
2018-06-12T11:50:06.470Z,28.62
2018-06-12T11:52:38.670Z,29.01
2018-06-12T11:55:10.130Z,28.23
2018-06-12T11:57:41.470Z,28.87
2018-06-12T12:00:13.472Z,29.56
2018-06-12T12:02:50.180Z,29.37
2018-06-12T12:05:22.071Z,28.96
2018-06-12T12:07:54.939Z,29.05
2018-06-12T12:10:26.958Z,29.65
2018-06-12T12:12:58.647Z,28.82
2018-06-12T12:15:30.265Z,28.53
2018-06-12T12:18:02.222Z,29.27
2018-06-12T12:20:34.776Z,28.42
2018-06-12T12:23:06.086Z,28.39
2018-06-12T12:25:37.500Z,28.61
2018-06-12T12:28:08.759Z,28.17
2018-06-12T12:30:40.614Z,27.49
2018-06-12T12:33:12.021Z,28.30
2018-06-12T12:35:44.972Z,28.51
2018-06-12T12:38:17.533Z,29.04
2018-06-12T12:40:49.747Z,27.80
2018-06-12T12:43:21.104Z,28.20
2018-06-12T12:45:52.400Z,28.42
2018-06-12T12:48:24.936Z,27.95
2018-06-12T12:50:57.014Z,28.94
2018-06-12T12:53:28.845Z,27.76
2018-06-12T12:56:00.732Z,27.86
2018-06-12T12:58:31.986Z,28.20
2018-06-12T13:01:03.263Z,28.25
2018-06-12T13:03:35.280Z,28.36
2018-06-12T13:06:06.775Z,28.29
2018-06-12T13:08:39.359Z,27.76
2018-06-12T13:11:12.912Z,27.16
2018-06-12T13:13:45.269Z,28.39
2018-06-12T13:16:16.547Z,28.85
2018-06-12T13:18:48.119Z,27.88
2018-06-12T13:21:20.753Z,27.49
2018-06-12T13:23:53.259Z,27.74
2018-06-12T13:26:25.369Z,27.55
2018-06-12T13:28:57.749Z,28.04
2018-06-12T13:31:29.089Z,28.11
2018-06-12T13:34:00.401Z,28.51
2018-06-12T13:36:31.816Z,28.60
2018-06-12T13:39:03.448Z,27.48
2018-06-12T13:41:36.274Z,27.49
2018-06-12T13:44:07.976Z,27.27
2018-06-12T13:46:41.155Z,27.90
2018-06-12T13:49:13.421Z,27.88
2018-06-12T13:51:45.019Z,27.62
2018-06-12T13:54:16.447Z,27.23
2018-06-12T13:56:49.092Z,27.17
2018-06-12T13:59:20.690Z,27.84
2018-06-12T14:01:51.942Z,27.50
2018-06-12T14:04:23.339Z,27.85
2018-06-12T14:06:56.178Z,27.45
2018-06-12T14:09:27.504Z,27.51
2018-06-12T14:11:58.723Z,27.96
2018-06-12T14:14:33.640Z,28.06
2018-06-12T14:17:05.516Z,27.29
2018-06-12T14:19:36.713Z,27.58
2018-06-12T14:22:08.264Z,27.23
2018-06-12T14:24:39.553Z,27.88
2018-06-12T14:27:11.235Z,27.15
2018-06-12T14:29:43.892Z,27.35
2018-06-12T14:32:16.171Z,27.73
2018-06-12T14:34:48.175Z,27.09
2018-06-12T14:37:19.252Z,27.82
2018-06-12T14:39:51.057Z,27.21
2018-06-12T14:42:23.116Z,27.28
2018-06-12T14:44:56.301Z,27.38
2018-06-12T14:47:28.080Z,27.33
2018-06-12T14:49:59.399Z,26.87
2018-06-12T14:52:30.643Z,26.42
2018-06-12T14:55:01.798Z,26.25
2018-06-12T14:57:33.121Z,26.28
2018-06-12T15:00:04.857Z,26.58
2018-06-12T15:02:37.220Z,26.99
2018-06-12T15:05:08.796Z,27.00
2018-06-12T15:07:40.081Z,26.36
2018-06-12T15:10:11.622Z,26.65
2018-06-12T15:12:44.716Z,27.09
2018-06-12T15:15:16.702Z,26.07
2018-06-12T15:17:49.016Z,26.06
2018-06-12T15:20:22.869Z,26.28
2018-06-12T15:22:54.017Z,26.45
2018-06-12T15:25:26.062Z,26.11
2018-06-12T15:27:57.542Z,26.36
2018-06-12T15:30:28.869Z,26.22
2018-06-12T15:33:00.363Z,25.69
2018-06-12T15:35:32.814Z,25.90
2018-06-12T15:38:03.519Z,26.04
2018-06-12T15:40:34.890Z,25.98
2018-06-12T15:43:06.496Z,25.78
2018-06-12T15:45:37.948Z,25.88
2018-06-12T15:48:08.933Z,26.25
2018-06-12T15:50:40.744Z,25.65
2018-06-12T15:53:13.338Z,25.54
2018-06-12T15:55:45.301Z,25.38
2018-06-12T15:58:16.696Z,25.51
2018-06-12T16:00:47.922Z,25.54
2018-06-12T16:03:19.316Z,25.25
2018-06-12T16:05:50.690Z,25.27
2018-06-12T16:08:23.249Z,25.35
2018-06-12T16:10:54.147Z,24.90
2018-06-12T16:13:25.572Z,25.05
2018-06-12T16:15:56.307Z,24.76
2018-06-12T16:18:27.970Z,25.14
2018-06-12T16:20:59.131Z,24.97
2018-06-12T16:23:30.733Z,25.03
2018-06-12T16:26:03.850Z,25.02
2018-06-12T16:28:35.370Z,25.03
2018-06-12T16:31:06.966Z,25.34
2018-06-12T16:33:38.738Z,25.20
2018-06-12T16:36:10.534Z,24.67
2018-06-12T16:38:41.005Z,24.50
2018-06-12T16:41:13.901Z,24.39
2018-06-12T16:43:45.858Z,24.61
2018-06-12T16:46:17.170Z,24.29
2018-06-12T16:48:48.432Z,24.22
2018-06-12T16:51:20.991Z,24.31
2018-06-12T16:53:52.333Z,24.33
2018-06-12T16:56:29.204Z,24.34
2018-06-12T16:59:01.816Z,24.14
2018-06-12T17:01:34.003Z,24.18
2018-06-12T17:04:05.864Z,24.28
2018-06-12T17:06:37.351Z,23.87
2018-06-12T17:09:10.456Z,24.05
2018-06-12T17:11:43.297Z,23.78
2018-06-12T17:14:15.143Z,23.88
2018-06-12T17:16:46.397Z,23.60
2018-06-12T17:19:18.296Z,23.58
2018-06-12T17:21:51.272Z,23.59
2018-06-12T17:24:24.749Z,23.59
2018-06-12T17:26:57.182Z,23.50
2018-06-12T17:29:29.975Z,23.42
2018-06-12T17:32:02.864Z,23.64
2018-06-12T17:34:34.962Z,23.55
2018-06-12T17:37:06.272Z,23.42
2018-06-12T17:39:37.554Z,23.48
2018-06-12T17:42:09.650Z,23.45
2018-06-12T17:44:42.198Z,23.46
2018-06-12T17:47:13.751Z,23.43
2018-06-12T17:49:46.422Z,23.35
2018-06-12T17:52:19.165Z,23.35
2018-06-12T17:54:51.447Z,23.32
2018-06-12T17:57:24.804Z,23.31
2018-06-12T17:59:57.719Z,23.25
2018-06-12T18:02:30.231Z,23.13
2018-06-12T18:05:02.801Z,22.90
2018-06-12T18:07:35.235Z,22.99
2018-06-12T18:10:07.497Z,22.90
2018-06-12T18:12:39.552Z,22.76
2018-06-12T18:15:13.664Z,22.76
2018-06-12T18:17:46.172Z,22.81
2018-06-12T18:20:22.402Z,22.82
2018-06-12T18:22:55.176Z,22.85
2018-06-12T18:25:28.463Z,22.74
2018-06-12T18:28:02.397Z,22.79
2018-06-12T18:30:36.757Z,22.68
2018-06-12T18:33:08.847Z,22.63
2018-06-12T18:35:43.828Z,22.64
2018-06-12T18:38:17.931Z,22.68
2018-06-12T18:40:52.199Z,22.63
2018-06-12T18:43:25.777Z,22.67
2018-06-12T18:45:58.684Z,22.67
2018-06-12T18:48:32.330Z,22.67
2018-06-12T18:51:05.857Z,22.69
2018-06-12T18:53:38.816Z,22.65
2018-06-12T18:56:11.899Z,22.60
2018-06-12T18:58:44.632Z,22.57
2018-06-12T19:01:17.975Z,22.39
2018-06-12T19:03:50.847Z,22.32
2018-06-12T19:06:24.598Z,22.33
2018-06-12T19:08:58.431Z,22.41
2018-06-12T19:11:32.148Z,22.42
2018-06-12T19:14:05.835Z,22.21
2018-06-12T19:16:38.657Z,22.27
2018-06-12T19:19:11.994Z,22.32
2018-06-12T19:21:44.804Z,22.42
2018-06-12T19:24:17.906Z,22.55
2018-06-12T19:26:50.646Z,22.67
2018-06-12T19:29:23.929Z,22.70
2018-06-12T19:31:56.154Z,22.75
2018-06-12T19:34:28.891Z,22.73
2018-06-12T19:37:02.054Z,22.81
2018-06-12T19:39:37.850Z,22.85
2018-06-12T19:42:11.442Z,22.92
2018-06-12T19:44:45.603Z,23.00
2018-06-12T19:47:20.140Z,23.04
2018-06-12T19:49:53.147Z,23.07
2018-06-12T19:52:26.315Z,23.01
2018-06-12T19:54:59.442Z,22.92
2018-06-12T19:57:33.232Z,22.83
2018-06-12T20:00:06.434Z,22.84
2018-06-12T20:02:38.542Z,22.83
2018-06-12T20:05:13.056Z,22.84
2018-06-12T20:07:46.934Z,22.71
2018-06-12T20:10:26.899Z,22.70
2018-06-12T20:13:01.774Z,22.70
2018-06-12T20:15:37.087Z,22.73
2018-06-12T20:18:09.727Z,22.74
2018-06-12T20:20:43.816Z,22.73
2018-06-12T20:23:16.530Z,22.64
2018-06-12T20:25:49.411Z,22.57
2018-06-12T20:28:22.761Z,22.47
2018-06-12T20:30:55.463Z,22.25
2018-06-12T20:33:28.821Z,22.07
2018-06-12T20:36:01.589Z,21.97
2018-06-12T20:38:34.224Z,21.82
2018-06-12T20:41:07.173Z,21.73
2018-06-12T20:43:40.490Z,21.53
2018-06-12T20:46:13.547Z,21.47
2018-06-12T20:48:46.707Z,21.46
2018-06-12T20:51:19.428Z,21.47
2018-06-12T20:53:52.175Z,21.47
2018-06-12T20:56:25.089Z,21.47
2018-06-12T20:58:57.664Z,21.47
2018-06-12T21:01:30.910Z,21.46
2018-06-12T21:04:02.451Z,21.49
2018-06-12T21:06:34.171Z,21.58
2018-06-12T21:09:06.780Z,21.63
2018-06-12T21:11:38.404Z,21.47
2018-06-12T21:14:10.051Z,21.45
2018-06-12T21:16:42.008Z,21.48
2018-06-12T21:19:14.486Z,21.53
2018-06-12T21:21:45.753Z,21.57
2018-06-12T21:24:18.802Z,21.56
2018-06-12T21:26:50.871Z,21.53
2018-06-12T21:29:22.513Z,21.49
2018-06-12T21:31:54.506Z,21.49
2018-06-12T21:34:26.048Z,21.45
2018-06-12T21:36:57.732Z,21.35
2018-06-12T21:39:29.527Z,21.26
2018-06-12T21:42:01.864Z,21.18
2018-06-12T21:44:32.976Z,21.17
2018-06-12T21:47:04.268Z,21.09
2018-06-12T21:49:35.300Z,21.02
2018-06-12T21:52:06.431Z,20.99
2018-06-12T21:54:37.693Z,20.94
2018-06-12T21:57:08.944Z,20.84
2018-06-12T21:59:40.883Z,20.77
2018-06-12T22:02:13.094Z,20.70
2018-06-12T22:04:45.155Z,20.60
2018-06-12T22:07:16.750Z,20.52
2018-06-12T22:09:49.343Z,20.49
2018-06-12T22:12:20.651Z,20.40
2018-06-12T22:14:52.325Z,20.35
2018-06-12T22:17:27.240Z,20.17
2018-06-12T22:19:58.936Z,20.03
2018-06-12T22:22:29.704Z,19.95
2018-06-12T22:25:01.356Z,19.94
2018-06-12T22:27:32.720Z,19.84
2018-06-12T22:30:05.563Z,19.82
2018-06-12T22:32:38.859Z,19.73
2018-06-12T22:35:10.054Z,19.63
2018-06-12T22:37:41.359Z,19.52
2018-06-12T22:40:15.193Z,19.42
2018-06-12T22:42:46.117Z,19.32
2018-06-12T22:45:20.930Z,19.28
2018-06-12T22:47:53.239Z,19.26
2018-06-12T22:50:24.539Z,19.29
2018-06-12T22:52:55.796Z,19.24
2018-06-12T22:55:27.443Z,19.16
2018-06-12T22:57:58.555Z,19.06
2018-06-12T23:00:29.401Z,18.99
2018-06-12T23:03:00.636Z,18.90
2018-06-12T23:05:32.098Z,18.84
2018-06-12T23:08:03.375Z,18.84
2018-06-12T23:10:34.833Z,18.75
2018-06-12T23:13:06.140Z,18.66
2018-06-12T23:15:37.307Z,18.58
2018-06-12T23:18:09.265Z,18.55
2018-06-12T23:21:57.122Z,18.55
2018-06-12T23:24:30.345Z,18.48
2018-06-12T23:27:02.165Z,18.48
2018-06-12T23:29:33.883Z,18.47
2018-06-12T23:32:06.109Z,18.44
2018-06-12T23:34:37.882Z,18.39
2018-06-12T23:37:09.566Z,18.32
2018-06-12T23:39:40.963Z,18.27
2018-06-12T23:42:12.207Z,18.25
2018-06-12T23:44:44.187Z,18.17
2018-06-12T23:47:15.533Z,18.08
2018-06-12T23:49:47.018Z,18.04
2018-06-12T23:52:18.179Z,17.97
2018-06-12T23:54:50.250Z,17.93
2018-06-12T23:57:21.418Z,17.91
2018-06-12T23:59:52.592Z,17.91
